Time;durP1;ratioP1;P1;durP2;ratioP2;P2;SDS_P1;SDS_P2;PMS_P1;PMS_P2;Temp;Humidity;BMP_temperature;BMP_pressure;BME280_temperature;BME280_humidity;BME280_pressure;Samples;Min_cycle;Max_cycle;Signal;HPM_P1;HPM_P2
2023/06/15 00:00:22;;;;;;;5.03;4.30;;;14.00;2.40;;;;;;5014191;28;20821;-74
2023/06/15 00:02:47;;;;;;;4.73;4.30;;;13.90;2.40;;;;;;5014060;28;20411;-75
2023/06/15 00:05:13;;;;;;;4.90;4.40;;;13.90;2.80;;;;;;5012716;28;20180;-74
2023/06/15 00:07:38;;;;;;;4.97;4.47;;;14.00;3.00;;;;;;5014237;28;20226;-75
2023/06/15 00:10:10;;;;;;;4.83;4.37;;;13.90;2.70;;;;;;5014327;28;20184;-75
2023/06/15 00:12:39;;;;;;;6.50;4.30;;;13.90;2.90;;;;;;5013985;28;20175;-76
2023/06/15 00:15:06;;;;;;;4.50;4.03;;;13.90;3.40;;;;;;5014114;28;20741;-75
2023/06/15 00:17:31;;;;;;;5.13;4.60;;;13.80;3.30;;;;;;5012673;28;20411;-76
2023/06/15 00:20:00;;;;;;;6.23;3.70;;;13.80;3.30;;;;;;5012536;28;20861;-75
2023/06/15 00:22:26;;;;;;;5.23;4.23;;;13.70;3.30;;;;;;5013732;28;20560;-74
2023/06/15 00:24:55;;;;;;;7.53;4.70;;;13.70;3.70;;;;;;5013929;28;20489;-75
2023/06/15 00:27:27;;;;;;;6.13;4.20;;;13.70;3.60;;;;;;5013588;28;20572;-75
2023/06/15 00:29:52;;;;;;;5.33;4.23;;;13.70;3.30;;;;;;5013609;28;20430;-75
2023/06/15 00:32:18;;;;;;;5.00;4.00;;;13.70;3.30;;;;;;5013320;28;20420;-74
2023/06/15 00:34:44;;;;;;;4.23;3.83;;;;;;;;;;5013523;28;20172;-75
2023/06/15 00:37:09;;;;;;;6.27;4.77;;;13.70;3.10;;;;;;5013706;28;20198;-75
2023/06/15 00:39:35;;;;;;;5.33;4.30;;;13.70;3.50;;;;;;5013103;28;20450;-74
2023/06/15 00:42:01;;;;;;;4.17;3.40;;;13.60;4.10;;;;;;5013169;28;20677;-74
2023/06/15 00:44:26;;;;;;;4.17;3.77;;;13.50;4.40;;;;;;5013370;28;20266;-74
2023/06/15 00:46:52;;;;;;;4.03;3.50;;;13.50;4.40;;;;;;5013159;28;20196;-74
2023/06/15 00:49:21;;;;;;;6.47;4.67;;;13.50;4.90;;;;;;5013117;28;20188;-74
2023/06/15 00:51:47;;;;;;;5.17;4.00;;;13.50;4.60;;;;;;5012896;28;20179;-74
2023/06/15 00:54:15;;;;;;;5.13;4.63;;;13.50;4.50;;;;;;5013081;28;20422;-74
2023/06/15 00:56:41;;;;;;;6.67;4.00;;;13.40;4.80;;;;;;5013013;28;20425;-74
2023/06/15 00:59:06;;;;;;;5.97;4.27;;;13.30;5.00;;;;;;5012910;28;20509;-75
2023/06/15 01:01:32;;;;;;;5.93;5.03;;;13.30;5.30;;;;;;5012274;28;20191;-74
2023/06/15 01:03:59;;;;;;;4.23;3.80;;;13.20;5.90;;;;;;5013040;28;20176;-74
2023/06/15 01:06:31;;;;;;;5.20;4.40;;;13.10;6.30;;;;;;5013025;28;20230;-74
2023/06/15 01:09:01;;;;;;;7.03;4.60;;;13.10;6.10;;;;;;5012949;28;20975;-75
2023/06/15 01:11:29;;;;;;;6.00;4.13;;;13.00;6.30;;;;;;5012857;28;20430;-75
2023/06/15 01:13:56;;;;;;;5.40;4.90;;;13.00;6.10;;;;;;5012826;28;20414;-74
2023/06/15 01:16:27;;;;;;;5.20;4.67;;;13.00;6.90;;;;;;5012940;28;20500;-74
2023/06/15 01:18:57;;;;;;;5.67;5.13;;;13.00;6.80;;;;;;5012714;28;20435;-73
2023/06/15 01:21:29;;;;;;;5.20;4.63;;;12.90;6.70;;;;;;5013038;28;20403;-74
2023/06/15 01:24:12;;;;;;;4.60;3.90;;;12.90;6.90;;;;;;5012591;28;20468;-75
2023/06/15 01:26:38;;;;;;;6.20;4.83;;;12.90;7.20;;;;;;5012528;28;20599;-74
2023/06/15 01:29:06;;;;;;;5.90;4.77;;;12.90;7.20;;;;;;5011017;28;20499;-74
2023/06/15 01:31:32;;;;;;;5.40;3.73;;;12.80;7.20;;;;;;5012386;28;20403;-74
2023/06/15 01:34:00;;;;;;;6.03;5.47;;;12.80;7.10;;;;;;5012441;28;20959;-75
2023/06/15 01:36:26;;;;;;;5.47;3.97;;;12.70;7.10;;;;;;5012592;28;20415;-74
2023/06/15 01:38:55;;;;;;;5.00;4.47;;;12.70;7.80;;;;;;5010735;28;20818;-74
2023/06/15 01:41:22;;;;;;;4.73;4.10;;;12.60;7.80;;;;;;5012634;28;20566;-75
2023/06/15 01:43:49;;;;;;;6.13;5.07;;;12.60;8.20;;;;;;5012661;28;20815;-75
2023/06/15 01:46:15;;;;;;;6.17;4.63;;;12.60;8.30;;;;;;5012278;28;20546;-75
2023/06/15 01:48:41;;;;;;;5.00;4.50;;;12.50;8.40;;;;;;5012547;28;20860;-75
2023/06/15 01:51:07;;;;;;;6.23;4.67;;;12.50;8.30;;;;;;5012378;28;20241;-75
2023/06/15 01:53:33;;;;;;;5.10;4.47;;;12.40;8.60;;;;;;5011955;28;20261;-75
2023/06/15 01:55:59;;;;;;;6.63;4.30;;;12.40;8.70;;;;;;5012047;28;20502;-75
2023/06/15 01:58:25;;;;;;;10.37;5.33;;;12.30;9.10;;;;;;5012125;28;20688;-75
2023/06/15 02:00:51;;;;;;;8.60;5.37;;;12.30;9.40;;;;;;5011928;28;20437;-75
2023/06/15 02:03:16;;;;;;;7.00;4.80;;;12.30;9.70;;;;;;5011655;28;20468;-75
2023/06/15 02:05:42;;;;;;;5.77;4.37;;;12.30;9.50;;;;;;5012140;28;20555;-75
2023/06/15 02:08:11;;;;;;;4.40;4.00;;;12.30;9.40;;;;;;5011780;28;20556;-75
2023/06/15 02:10:38;;;;;;;5.53;4.30;;;12.30;9.50;;;;;;5011878;28;20190;-75
2023/06/15 02:13:06;;;;;;;5.17;4.67;;;12.30;9.60;;;;;;5010667;28;20424;-76
2023/06/15 02:15:31;;;;;;;5.17;4.40;;;12.30;9.50;;;;;;5011752;28;21007;-75
2023/06/15 02:18:01;;;;;;;5.37;4.87;;;12.30;9.40;;;;;;5011701;28;20496;-75
2023/06/15 02:20:30;;;;;;;5.60;4.70;;;12.30;9.80;;;;;;5011413;28;20199;-75
2023/06/15 02:22:59;;;;;;;6.23;4.23;;;12.30;9.90;;;;;;5011473;28;20492;-75
2023/06/15 02:25:27;;;;;;;5.50;4.63;;;12.30;9.80;;;;;;5011616;28;20415;-75
2023/06/15 02:27:53;;;;;;;7.33;4.93;;;12.30;9.90;;;;;;5011760;28;20420;-75
2023/06/15 02:30:20;;;;;;;5.23;4.23;;;12.30;9.40;;;;;;5011652;28;20967;-75
2023/06/15 02:32:48;;;;;;;5.53;4.03;;;12.30;9.50;;;;;;5011495;28;20425;-75
2023/06/15 02:35:14;;;;;;;4.43;3.80;;;12.30;9.50;;;;;;5011566;28;20421;-75
2023/06/15 02:37:40;;;;;;;11.27;4.93;;;12.30;9.70;;;;;;5011655;28;20417;-75
2023/06/15 02:40:08;;;;;;;6.20;4.80;;;12.30;9.80;;;;;;5011301;28;20289;-75
2023/06/15 02:42:35;;;;;;;7.47;5.20;;;12.30;9.80;;;;;;5011147;28;20417;-75
2023/06/15 02:45:02;;;;;;;5.20;4.13;;;12.30;10.10;;;;;;5011540;28;20853;-74
2023/06/15 02:47:29;;;;;;;10.10;4.37;;;12.30;10.30;;;;;;5011269;28;20461;-75
2023/06/15 02:49:55;;;;;;;5.00;4.47;;;12.20;10.80;;;;;;5009975;28;20445;-74
2023/06/15 02:52:21;;;;;;;5.00;4.13;;;12.20;10.10;;;;;;5011101;28;20415;-75
2023/06/15 02:54:46;;;;;;;5.40;4.50;;;12.10;10.60;;;;;;5011176;28;20263;-75
2023/06/15 02:57:12;;;;;;;4.93;4.40;;;12.10;10.70;;;;;;5011133;28;20968;-75
2023/06/15 02:59:40;;;;;;;4.70;4.10;;;12.10;11.10;;;;;;5011164;28;20284;-75
2023/06/15 03:02:06;;;;;;;4.43;4.03;;;12.10;11.10;;;;;;5009808;28;20269;-75
2023/06/15 03:04:44;;;;;;;4.43;4.00;;;12.10;11.10;;;;;;5011365;28;20814;-75
2023/06/15 03:07:20;;;;;;;5.70;4.27;;;12.10;11.10;;;;;;5011273;28;20456;-74
2023/06/15 03:09:53;;;;;;;5.50;4.43;;;12.10;11.10;;;;;;5011100;28;20751;-75
2023/06/15 03:12:19;;;;;;;5.87;4.63;;;12.00;11.10;;;;;;5011112;28;20466;-75
2023/06/15 03:14:50;;;;;;;10.53;4.50;;;12.00;11.10;;;;;;5011108;28;20410;-75
2023/06/15 03:17:16;;;;;;;6.90;5.20;;;12.00;11.70;;;;;;5011124;28;20553;-75
2023/06/15 03:19:43;;;;;;;8.60;5.30;;;12.00;11.80;;;;;;5011006;28;20524;-74
2023/06/15 03:22:09;;;;;;;5.37;4.43;;;11.90;11.80;;;;;;5011049;28;20504;-74
2023/06/15 03:24:35;;;;;;;7.20;5.40;;;11.90;11.90;;;;;;5013918;28;20456;-74
2023/06/15 03:27:03;;;;;;;6.57;4.83;;;11.90;12.30;;;;;;5014819;28;20566;-74
2023/06/15 03:29:29;;;;;;;6.80;5.97;;;11.90;12.20;;;;;;5014793;28;20955;-74
2023/06/15 03:31:55;;;;;;;6.10;5.00;;;11.80;12.10;;;;;;5014585;28;20803;-75
2023/06/15 03:34:21;;;;;;;6.90;5.33;;;11.80;12.20;;;;;;5014695;28;20408;-74
2023/06/15 03:36:47;;;;;;;6.57;5.70;;;11.80;12.40;;;;;;5014731;28;20459;-74
2023/06/15 03:39:13;;;;;;;5.87;4.73;;;11.80;12.50;;;;;;5014646;28;20450;-74
2023/06/15 03:41:39;;;;;;;4.97;4.47;;;11.90;12.40;;;;;;5014431;28;20189;-74
2023/06/15 03:44:04;;;;;;;6.97;4.60;;;11.90;12.50;;;;;;5014425;28;20417;-74
2023/06/15 03:46:30;;;;;;;5.70;5.13;;;11.90;12.40;;;;;;5014517;28;20209;-74
2023/06/15 03:48:56;;;;;;;6.30;5.30;;;12.00;12.40;;;;;;5014313;28;20204;-75
2023/06/15 03:51:21;;;;;;;5.50;4.77;;;12.00;12.20;;;;;;5012956;28;20184;-75
2023/06/15 03:53:47;;;;;;;5.97;5.30;;;12.10;12.30;;;;;;5014098;28;20669;-74
2023/06/15 03:56:12;;;;;;;7.73;5.30;;;12.10;12.60;;;;;;5014149;28;20218;-74
2023/06/15 03:58:38;;;;;;;7.47;5.30;;;12.00;12.90;;;;;;5012922;28;20177;-75
2023/06/15 04:01:07;;;;;;;7.17;5.40;;;12.00;12.70;;;;;;5014473;28;20532;-74
2023/06/15 04:03:34;;;;;;;7.37;6.40;;;12.00;12.80;;;;;;5014137;28;20186;-74
2023/06/15 04:06:04;;;;;;;11.13;7.43;;;12.00;12.80;;;;;;5014184;28;20462;-75
2023/06/15 04:08:31;;;;;;;7.27;5.77;;;12.00;12.50;;;;;;5014033;28;20596;-74
2023/06/15 04:10:56;;;;;;;19.00;7.17;;;12.10;12.40;;;;;;5014089;28;20426;-74
2023/06/15 04:13:23;;;;;;;8.40;5.80;;;12.10;12.30;;;;;;5013845;28;20503;-74
2023/06/15 04:15:48;;;;;;;8.53;5.07;;;12.10;12.10;;;;;;5013958;28;20422;-74
2023/06/15 04:18:14;;;;;;;5.57;5.03;;;12.20;12.30;;;;;;5012661;28;20784;-74
2023/06/15 04:20:40;;;;;;;6.57;5.43;;;12.20;12.50;;;;;;5013840;28;20306;-75
2023/06/15 04:23:05;;;;;;;7.70;5.80;;;12.20;12.70;;;;;;5013681;28;20639;-74
2023/06/15 04:25:35;;;;;;;11.60;5.60;;;12.30;12.40;;;;;;5013602;28;20182;-74
2023/06/15 04:28:03;;;;;;;14.87;5.80;;;12.30;11.80;;;;;;5013770;28;20304;-75
2023/06/15 04:30:29;;;;;;;6.47;5.10;;;12.40;11.60;;;;;;5013827;28;20433;-74
2023/06/15 04:32:59;;;;;;;7.60;6.70;;;12.40;11.70;;;;;;5013749;28;20716;-74
2023/06/15 04:35:28;;;;;;;6.73;5.43;;;12.40;11.30;;;;;;5012584;28;20435;-74
2023/06/15 04:37:57;;;;;;;7.07;5.00;;;12.40;11.80;;;;;;5013508;28;20414;-74
2023/06/15 04:40:22;;;;;;;9.67;4.40;;;12.40;12.10;;;;;;5013959;28;20823;-74
2023/06/15 04:42:48;;;;;;;5.70;4.60;;;12.40;12.30;;;;;;5013294;28;20500;-74
2023/06/15 04:45:13;;;;;;;6.40;4.93;;;12.40;12.10;;;;;;5013496;28;20179;-74
2023/06/15 04:47:41;;;;;;;7.87;5.83;;;12.40;12.30;;;;;;5013387;28;20268;-74
2023/06/15 04:50:08;;;;;;;6.77;5.80;;;12.50;12.30;;;;;;5013349;28;20190;-74
2023/06/15 04:52:34;;;;;;;5.90;4.87;;;12.60;11.70;;;;;;5013197;28;20504;-74
2023/06/15 04:55:00;;;;;;;10.40;5.67;;;12.70;11.60;;;;;;5013475;28;20443;-74
2023/06/15 04:57:25;;;;;;;7.07;5.80;;;12.80;11.90;;;;;;5013351;28;20422;-74
2023/06/15 04:59:51;;;;;;;6.50;4.43;;;13.00;11.80;;;;;;5012967;28;20800;-74
2023/06/15 05:02:16;;;;;;;8.70;5.10;;;13.10;11.30;;;;;;5011587;28;20628;-74
2023/06/15 05:04:42;;;;;;;5.47;4.97;;;13.30;10.60;;;;;;5013184;28;20186;-75
2023/06/15 05:07:07;;;;;;;15.57;6.10;;;13.50;9.80;;;;;;5012834;28;20350;-74
2023/06/15 05:09:33;;;;;;;5.70;4.80;;;13.70;9.10;;;;;;5013138;28;20207;-74
2023/06/15 05:11:58;;;;;;;5.93;4.83;;;13.90;8.90;;;;;;5012902;28;20574;-74
2023/06/15 05:14:26;;;;;;;6.13;5.50;;;14.00;8.50;;;;;;5012931;28;20677;-74
2023/06/15 05:16:52;;;;;;;6.87;4.90;;;14.20;8.10;;;;;;5012938;28;20649;-74
2023/06/15 05:19:18;;;;;;;7.80;5.30;;;14.20;8.00;;;;;;5013064;28;20924;-74
2023/06/15 05:21:43;;;;;;;5.53;4.70;;;14.40;7.70;;;;;;5012813;28;20425;-74
2023/06/15 05:24:09;;;;;;;7.27;5.77;;;14.50;7.00;;;;;;5013000;28;20190;-74
2023/06/15 05:26:34;;;;;;;6.20;5.60;;;14.60;6.90;;;;;;5012741;28;20214;-74
2023/06/15 05:29:00;;;;;;;7.20;6.37;;;14.60;6.70;;;;;;5012825;28;20192;-74
2023/06/15 05:31:25;;;;;;;8.83;6.00;;;14.70;6.80;;;;;;5012726;28;20228;-73
2023/06/15 05:33:51;;;;;;;5.90;5.30;;;14.70;6.40;;;;;;5012925;28;20181;-73
2023/06/15 05:36:17;;;;;;;11.90;5.63;;;14.70;6.90;;;;;;5012599;28;20176;-73
2023/06/15 05:38:42;;;;;;;6.50;5.90;;;14.90;6.70;;;;;;5012733;28;20583;-74
2023/06/15 05:41:08;;;;;;;9.10;6.20;;;15.00;6.60;;;;;;5012818;28;20188;-74
2023/06/15 05:43:33;;;;;;;6.40;4.83;;;15.00;6.10;;;;;;5012293;28;20583;-73
2023/06/15 05:45:59;;;;;;;6.53;5.87;;;15.30;6.00;;;;;;5012482;28;20205;-74
2023/06/15 05:48:24;;;;;;;9.00;6.10;;;15.70;4.60;;;;;;5012513;28;20583;-74
2023/06/15 05:50:50;;;;;;;6.50;5.90;;;16.40;3.80;;;;;;5012327;28;20664;-74
2023/06/15 05:53:16;;;;;;;7.60;5.23;;;17.00;1.80;;;;;;5012396;28;20597;-75
2023/06/15 05:55:42;;;;;;;5.43;4.93;;;17.30;1.00;;;;;;5012693;28;20261;-74
2023/06/15 05:58:07;;;;;;;6.30;5.80;;;18.30;1.00;;;;;;5012658;28;20915;-73
2023/06/15 06:00:33;;;;;;;6.73;6.10;;;18.80;1.00;;;;;;5012374;28;20196;-74
2023/06/15 06:02:59;;;;;;;6.97;6.30;;;20.30;1.00;;;;;;5012311;28;20172;-74
2023/06/15 06:05:24;;;;;;;6.47;5.90;;;22.20;1.00;;;;;;5012239;28;20263;-74
2023/06/15 06:07:50;;;;;;;9.30;8.40;;;25.00;1.00;;;;;;5012299;28;20490;-75
2023/06/15 06:10:19;;;;;;;7.80;6.20;;;27.10;1.00;;;;;;5012189;28;20222;-75
2023/06/15 06:12:45;;;;;;;15.17;7.73;;;29.70;1.00;;;;;;5011749;28;20422;-75
2023/06/15 06:15:10;;;;;;;7.07;6.37;;;31.10;1.00;;;;;;5012355;28;20415;-74
2023/06/15 06:17:36;;;;;;;11.20;7.30;;;32.00;1.00;;;;;;5012154;28;20584;-74
2023/06/15 06:20:03;;;;;;;13.30;6.80;;;33.40;1.00;;;;;;5011905;28;20218;-75
2023/06/15 06:22:28;;;;;;;7.10;6.60;;;32.10;1.00;;;;;;5011792;28;20180;-74
2023/06/15 06:24:54;;;;;;;6.87;6.37;;;28.70;1.00;;;;;;5012231;28;20427;-74
2023/06/15 06:27:19;;;;;;;7.00;6.30;;;27.70;1.00;;;;;;5012181;28;20666;-74
2023/06/15 06:29:45;;;;;;;7.90;7.30;;;28.40;1.00;;;;;;5011949;28;20208;-74
2023/06/15 06:32:10;;;;;;;6.40;5.77;;;29.20;1.00;;;;;;5011895;28;20183;-75
2023/06/15 06:34:36;;;;;;;8.23;7.40;;;30.80;1.00;;;;;;5012005;28;20199;-74
2023/06/15 06:37:05;;;;;;;7.30;6.70;;;31.90;1.00;;;;;;5012036;28;20188;-74
2023/06/15 06:39:31;;;;;;;11.07;6.90;;;33.50;1.00;;;;;;5011826;28;20283;-75
2023/06/15 06:41:57;;;;;;;9.70;6.07;;;34.90;1.00;;;;;;5011843;28;20422;-75
2023/06/15 06:44:22;;;;;;;6.63;6.13;;;34.50;1.00;;;;;;5012164;28;20774;-75
2023/06/15 06:46:48;;;;;;;7.10;6.50;;;34.00;1.00;;;;;;5011956;28;20656;-75
2023/06/15 06:49:13;;;;;;;7.30;6.70;;;34.70;1.00;;;;;;5011632;28;20199;-75
2023/06/15 06:51:39;;;;;;;6.97;6.47;;;35.80;1.00;;;;;;5011397;28;20172;-74
2023/06/15 06:54:05;;;;;;;6.90;6.20;;;36.10;1.00;;;;;;5011835;28;20175;-75
2023/06/15 06:56:30;;;;;;;6.47;6.07;;;35.60;1.00;;;;;;5011827;28;20521;-75
2023/06/15 06:58:56;;;;;;;7.07;6.57;;;34.30;1.00;;;;;;5013565;28;20557;-76
2023/06/15 07:01:22;;;;;;;7.60;6.90;;;34.90;1.00;;;;;;5015888;28;20186;-75
2023/06/15 07:03:47;;;;;;;8.30;6.80;;;35.60;1.00;;;;;;5015222;28;20274;-75
2023/06/15 07:06:13;;;;;;;7.17;6.53;;;35.90;1.00;;;;;;5015520;28;20215;-74
2023/06/15 07:08:38;;;;;;;6.47;5.90;;;36.30;1.00;;;;;;5015415;28;20604;-74
2023/06/15 07:11:04;;;;;;;6.57;6.07;;;36.50;1.00;;;;;;5015695;28;20230;-75
2023/06/15 07:13:29;;;;;;;7.47;6.77;;;37.00;1.00;;;;;;5015324;28;20183;-74
2023/06/15 07:15:57;;;;;;;10.03;7.17;;;37.30;1.00;;;;;;5015619;28;20339;-74
2023/06/15 07:18:23;;;;;;;8.90;8.20;;;37.30;1.00;;;;;;5015318;28;20172;-75
2023/06/15 07:20:55;;;;;;;9.20;8.40;;;36.40;1.00;;;;;;5015071;28;20446;-74
2023/06/15 07:23:24;;;;;;;9.17;8.30;;;36.40;1.00;;;;;;5014991;28;20472;-74
2023/06/15 07:25:52;;;;;;;7.70;7.10;;;36.60;1.00;;;;;;5015240;28;20454;-74
2023/06/15 07:28:18;;;;;;;10.60;7.80;;;36.80;1.00;;;;;;5014842;28;20559;-75
2023/06/15 07:30:46;;;;;;;9.33;8.37;;;37.50;1.00;;;;;;5014969;28;20922;-75
2023/06/15 07:33:11;;;;;;;9.30;8.60;;;37.40;1.00;;;;;;5014833;28;20407;-74
2023/06/15 07:35:37;;;;;;;8.90;8.20;;;36.70;1.00;;;;;;5014953;28;20422;-74
2023/06/15 07:38:03;;;;;;;8.93;8.13;;;37.20;1.00;;;;;;5015030;28;20176;-74
2023/06/15 07:40:29;;;;;;;8.40;7.80;;;37.00;1.00;;;;;;5015034;28;20458;-74
2023/06/15 07:42:54;;;;;;;8.40;7.70;;;37.00;1.00;;;;;;5014560;28;20446;-74
2023/06/15 07:45:20;;;;;;;8.40;7.63;;;37.40;1.00;;;;;;5014683;28;20182;-74
2023/06/15 07:47:45;;;;;;;10.57;8.70;;;36.80;1.00;;;;;;5014545;28;20227;-74
2023/06/15 07:50:11;;;;;;;9.30;8.53;;;37.20;1.00;;;;;;5014603;28;20288;-74
2023/06/15 07:52:37;;;;;;;8.87;8.00;;;37.30;1.00;;;;;;5014475;28;20172;-74
2023/06/15 07:55:03;;;;;;;8.93;8.17;;;36.50;1.00;;;;;;5014978;28;20205;-73
2023/06/15 07:57:29;;;;;;;10.03;7.87;;;36.50;1.00;;;;;;5014617;28;20184;-74
2023/06/15 07:59:54;;;;;;;18.77;10.27;;;37.00;1.00;;;;;;5014448;28;21007;-74
2023/06/15 08:02:20;;;;;;;8.47;7.50;;;38.80;1.00;;;;;;5014264;28;20633;-74
2023/06/15 08:04:46;;;;;;;8.87;8.07;;;38.90;1.00;;;;;;5014604;28;20601;-74
2023/06/15 08:07:12;;;;;;;8.17;7.57;;;38.90;1.00;;;;;;5014495;28;20215;-74
2023/06/15 08:09:37;;;;;;;8.80;8.20;;;38.60;1.00;;;;;;5014148;28;20254;-74
2023/06/15 08:12:03;;;;;;;9.20;8.50;;;37.80;1.00;;;;;;5014128;28;20455;-74
2023/06/15 08:14:29;;;;;;;13.57;9.13;;;38.40;1.00;;;;;;5014419;28;20192;-74
2023/06/15 08:16:55;;;;;;;8.50;7.70;;;38.80;1.00;;;;;;5014491;28;20418;-74
2023/06/15 08:19:20;;;;;;;8.47;7.77;;;38.10;1.00;;;;;;5014439;28;20684;-73
2023/06/15 08:21:46;;;;;;;7.30;6.90;;;38.10;1.00;;;;;;5014155;28;20557;-74
2023/06/15 08:24:12;;;;;;;7.80;7.20;;;38.10;1.00;;;;;;5014443;28;20187;-74
2023/06/15 08:26:38;;;;;;;8.53;7.90;;;37.40;1.00;;;;;;5013930;28;20257;-74
2023/06/15 08:29:04;;;;;;;7.43;6.83;;;36.80;1.00;;;;;;5014171;28;20427;-74
2023/06/15 08:31:30;;;;;;;8.03;7.23;;;37.20;1.00;;;;;;5013718;28;20176;-74
2023/06/15 08:33:55;;;;;;;8.17;7.47;;;37.80;1.00;;;;;;5013704;28;20284;-73
2023/06/15 08:36:22;;;;;;;7.87;7.27;;;36.50;1.00;;;;;;5013891;28;20263;-74
2023/06/15 08:38:48;;;;;;;8.10;7.50;;;36.00;1.00;;;;;;5013730;28;20217;-73
2023/06/15 08:41:14;;;;;;;6.90;6.43;;;35.30;1.00;;;;;;5013955;28;20766;-74
2023/06/15 08:43:43;;;;;;;9.47;8.67;;;35.80;1.00;;;;;;5013281;28;20168;-74
2023/06/15 08:46:08;;;;;;;10.03;9.00;;;36.70;1.00;;;;;;5013446;28;20462;-74
2023/06/15 08:48:36;;;;;;;8.30;7.13;;;35.50;1.00;;;;;;5013596;28;20411;-74
2023/06/15 08:51:07;;;;;;;7.50;6.70;;;34.80;1.00;;;;;;5013904;28;20642;-73
2023/06/15 08:53:34;;;;;;;8.40;7.70;;;35.20;1.00;;;;;;5013460;28;20885;-74
2023/06/15 08:56:00;;;;;;;7.27;6.77;;;36.10;1.00;;;;;;5013636;28;20765;-74
2023/06/15 08:58:25;;;;;;;7.70;7.00;;;37.10;1.00;;;;;;5013467;28;20844;-73
2023/06/15 09:00:54;;;;;;;6.73;6.17;;;38.10;1.00;;;;;;5013271;28;20513;-74
2023/06/15 09:03:21;;;;;;;8.00;7.27;;;37.80;1.00;;;;;;5013267;28;20234;-74
2023/06/15 09:05:47;;;;;;;7.10;6.67;;;37.30;1.00;;;;;;5013350;28;20486;-74
2023/06/15 09:08:13;;;;;;;7.77;7.27;;;38.00;1.00;;;;;;5013224;28;20415;-74
2023/06/15 09:10:41;;;;;;;7.83;7.23;;;36.50;1.00;;;;;;5013156;28;20431;-74
2023/06/15 09:13:16;;;;;;;7.17;6.77;;;35.90;1.00;;;;;;5012827;28;20183;-74
2023/06/15 09:15:43;;;;;;;7.00;6.50;;;36.00;1.00;;;;;;5013109;28;20410;-74
2023/06/15 09:18:14;;;;;;;7.13;6.63;;;36.50;1.00;;;;;;5013297;28;20419;-70
2023/06/15 09:20:40;;;;;;;7.77;7.20;;;34.00;1.00;;;;;;5012927;28;20804;-75
2023/06/15 09:23:10;;;;;;;8.20;7.60;;;31.30;1.00;;;;;;5011606;28;20415;-73
2023/06/15 09:25:36;;;;;;;7.53;6.83;;;29.10;1.00;;;;;;5012882;28;20176;-74
2023/06/15 09:28:08;;;;;;;6.63;6.20;;;27.50;1.00;;;;;;5013194;28;20411;-73
2023/06/15 09:30:38;;;;;;;7.17;6.67;;;26.90;1.00;;;;;;5013025;28;20223;-73
2023/06/15 09:33:18;;;;;;;9.67;7.33;;;26.30;1.00;;;;;;5012998;28;20419;-74
2023/06/15 09:36:02;;;;;;;7.70;7.00;;;26.20;1.00;;;;;;5013043;28;20415;-74
2023/06/15 09:38:30;;;;;;;11.03;8.13;;;26.10;1.00;;;;;;5012970;28;20474;-73
2023/06/15 09:40:57;;;;;;;9.50;6.80;;;25.60;1.00;;;;;;5013004;28;20406;-73
2023/06/15 09:43:23;;;;;;;6.73;5.97;;;25.50;1.00;;;;;;5012765;28;20890;-74
2023/06/15 09:45:56;;;;;;;7.03;6.53;;;25.40;1.00;;;;;;5012800;28;20548;-73
2023/06/15 09:48:21;;;;;;;7.10;6.50;;;25.50;1.00;;;;;;5012840;28;20712;-73
2023/06/15 09:50:53;;;;;;;6.57;6.07;;;25.30;1.00;;;;;;5012588;28;20479;-75
2023/06/15 09:53:22;;;;;;;6.63;6.00;;;25.10;1.00;;;;;;5012778;28;20179;-75
2023/06/15 09:55:48;;;;;;;9.63;6.00;;;25.20;1.00;;;;;;5012382;28;20425;-72
2023/06/15 09:58:14;;;;;;;7.50;5.90;;;25.40;1.00;;;;;;5012280;28;20415;-72
2023/06/15 10:00:40;;;;;;;5.97;5.57;;;25.50;1.00;;;;;;5012036;28;20196;-73
2023/06/15 10:03:07;;;;;;;7.07;6.40;;;25.40;1.00;;;;;;5011710;28;20412;-73
2023/06/15 10:05:37;;;;;;;8.40;6.53;;;25.40;1.00;;;;;;5011794;28;20533;-73
2023/06/15 10:08:07;;;;;;;6.83;6.30;;;25.30;1.00;;;;;;5012041;28;20912;-73
2023/06/15 10:10:37;;;;;;;7.60;6.70;;;25.40;1.00;;;;;;5011915;28;20458;-72
2023/06/15 10:13:04;;;;;;;5.73;5.33;;;25.60;1.00;;;;;;5011753;28;20708;-72
2023/06/15 10:15:33;;;;;;;6.57;6.17;;;25.70;1.00;;;;;;5011810;28;20414;-73
2023/06/15 10:18:01;;;;;;;6.90;6.40;;;25.80;1.00;;;;;;5011876;28;20419;-72
2023/06/15 10:20:28;;;;;;;11.47;6.23;;;25.70;1.00;;;;;;5010634;28;20469;-72
2023/06/15 10:23:00;;;;;;;6.30;5.27;;;25.70;1.00;;;;;;5011485;28;20833;-72
2023/06/15 10:25:27;;;;;;;5.50;5.10;;;25.80;1.00;;;;;;5011743;28;20920;-73
2023/06/15 10:27:53;;;;;;;63.50;20.80;;;26.00;1.00;;;;;;5011636;28;20496;-73
2023/06/15 10:30:30;;;;;;;22.47;10.93;;;25.90;1.00;;;;;;5012009;28;20541;-72
2023/06/15 10:33:26;;;;;;;6.00;5.37;;;25.90;1.00;;;;;;5010498;28;20422;-72
2023/06/15 10:35:59;;;;;;;8.23;6.57;;;26.10;1.00;;;;;;5011641;28;20407;-75
2023/06/15 10:38:40;;;;;;;6.00;5.60;;;26.20;1.00;;;;;;5010261;28;20433;-75
2023/06/15 10:41:06;;;;;;;6.03;5.40;;;26.40;1.00;;;;;;5012151;28;20783;-75
2023/06/15 10:43:31;;;;;;;7.00;5.73;;;26.10;1.00;;;;;;5011301;28;20425;-74
2023/06/15 10:45:57;;;;;;;30.67;11.40;;;25.90;1.00;;;;;;5011489;28;20219;-75
2023/06/15 10:48:27;;;;;;;5.30;4.90;;;25.70;1.00;;;;;;5011612;28;20172;-74
2023/06/15 10:51:07;;;;;;;5.30;4.90;;;25.60;1.00;;;;;;5011460;28;20222;-74
2023/06/15 10:53:40;;;;;;;13.30;5.53;;;25.50;1.00;;;;;;5011249;28;20415;-75
2023/06/15 10:56:47;;;;;;;6.57;5.97;;;25.70;1.00;;;;;;5011348;28;20423;-75
2023/06/15 10:59:12;;;;;;;49.60;12.30;;;25.90;1.00;;;;;;5005708;28;20462;-75
2023/06/15 11:01:38;;;;;;;10.63;5.77;;;26.10;1.00;;;;;;5011465;28;20896;-75
2023/06/15 11:04:29;;;;;;;8.10;5.50;;;26.40;1.00;;;;;;5011515;28;20658;-75
2023/06/15 11:06:56;;;;;;;8.50;5.90;;;26.30;1.00;;;;;;5011419;28;20219;-75
2023/06/15 11:09:24;;;;;;;6.10;5.60;;;26.40;1.00;;;;;;5011323;28;20446;-75
2023/06/15 11:11:50;;;;;;;6.10;5.70;;;26.00;1.00;;;;;;5011172;28;20419;-75
2023/06/15 11:14:19;;;;;;;5.70;5.30;;;26.20;1.00;;;;;;5011329;28;20884;-75
2023/06/15 11:16:45;;;;;;;6.47;5.97;;;26.40;1.00;;;;;;5011597;28;20188;-75
2023/06/15 11:19:11;;;;;;;5.33;4.93;;;26.60;1.00;;;;;;5011550;28;20948;-75
2023/06/15 11:21:40;;;;;;;5.93;5.50;;;27.30;1.00;;;;;;5011230;28;20755;-75
2023/06/15 11:24:06;;;;;;;6.00;5.50;;;27.70;1.00;;;;;;5010188;28;20522;-75
2023/06/15 11:26:34;;;;;;;6.33;5.70;;;27.60;1.00;;;;;;5011266;28;20477;-75
2023/06/15 11:29:01;;;;;;;6.43;5.93;;;27.30;1.00;;;;;;5011259;28;20438;-75
2023/06/15 11:31:27;;;;;;;6.17;5.77;;;26.70;1.00;;;;;;5011213;28;20411;-75
2023/06/15 11:33:53;;;;;;;5.77;5.30;;;26.30;1.00;;;;;;5011292;28;20407;-75
2023/06/15 11:36:18;;;;;;;5.03;4.73;;;26.30;1.00;;;;;;5011366;28;20422;-75
2023/06/15 11:38:44;;;;;;;8.17;6.43;;;26.60;1.00;;;;;;5011003;28;20204;-75
2023/06/15 11:41:11;;;;;;;5.63;5.23;;;26.90;1.00;;;;;;5011189;28;20176;-75
2023/06/15 11:43:48;;;;;;;5.80;5.20;;;27.00;1.00;;;;;;5010864;28;20184;-75
2023/06/15 11:46:16;;;;;;;5.90;5.50;;;27.00;1.00;;;;;;5014835;28;20458;-75
2023/06/15 11:48:45;;;;;;;6.80;5.43;;;26.60;1.00;;;;;;5014544;28;20418;-75
2023/06/15 11:51:12;;;;;;;14.93;6.00;;;26.60;1.00;;;;;;5014569;28;20418;-75
2023/06/15 11:53:39;;;;;;;6.20;5.70;;;26.90;1.00;;;;;;5014338;28;20426;-75
2023/06/15 11:56:07;;;;;;;6.17;5.73;;;26.60;1.00;;;;;;5013272;28;20873;-75
2023/06/15 11:58:33;;;;;;;6.03;5.57;;;26.20;1.00;;;;;;5014141;28;20438;-75
2023/06/15 12:00:59;;;;;;;5.10;4.60;;;25.60;1.00;;;;;;5014422;28;20423;-74
2023/06/15 12:03:26;;;;;;;6.50;5.60;;;25.50;1.00;;;;;;5014157;28;20654;-76
2023/06/15 12:05:57;;;;;;;7.30;5.57;;;25.30;1.00;;;;;;5014301;28;20653;-75
2023/06/15 12:08:25;;;;;;;4.80;4.50;;;25.30;1.00;;;;;;5014450;28;20418;-75
2023/06/15 12:10:51;;;;;;;7.30;6.70;;;25.40;1.00;;;;;;5014875;28;20944;-74
2023/06/15 12:13:17;;;;;;;19.60;9.23;;;25.30;1.00;;;;;;5014379;28;20418;-75
2023/06/15 12:15:46;;;;;;;5.50;4.67;;;25.60;1.00;;;;;;5014522;28;20238;-72
2023/06/15 12:18:13;;;;;;;5.97;5.47;;;25.80;1.00;;;;;;5014409;28;20180;-71
2023/06/15 12:20:39;;;;;;;6.77;6.17;;;25.50;1.00;;;;;;5014123;28;20473;-71
2023/06/15 12:23:05;;;;;;;5.77;5.40;;;25.40;1.00;;;;;;5014044;28;20412;-71
2023/06/15 12:25:47;;;;;;;6.07;5.57;;;25.60;1.00;;;;;;5014376;28;20901;-71
2023/06/15 12:28:17;;;;;;;7.20;6.23;;;25.90;1.00;;;;;;5014428;28;20426;-70
2023/06/15 12:30:43;;;;;;;6.03;5.60;;;26.10;1.00;;;;;;5013622;28;20518;-71
2023/06/15 12:33:29;;;;;;;6.13;5.73;;;26.00;1.00;;;;;;5014269;28;20450;-71
2023/06/15 12:35:55;;;;;;;6.73;6.23;;;26.10;1.00;;;;;;5013043;28;20502;-71
2023/06/15 12:38:23;;;;;;;6.60;6.13;;;26.50;1.00;;;;;;5014310;28;20415;-71
2023/06/15 12:40:49;;;;;;;6.43;5.83;;;26.60;1.00;;;;;;5014148;28;20497;-70
2023/06/15 12:43:22;;;;;;;5.63;5.23;;;26.50;1.00;;;;;;5013847;28;20630;-70
2023/06/15 12:45:48;;;;;;;5.63;5.23;;;26.50;1.00;;;;;;5013930;28;20422;-71
2023/06/15 12:48:14;;;;;;;8.27;5.70;;;26.60;1.00;;;;;;5012563;28;20430;-71
2023/06/15 12:50:40;;;;;;;6.80;6.20;;;26.60;1.00;;;;;;5013931;28;20964;-73
2023/06/15 12:53:06;;;;;;;6.17;5.67;;;26.70;1.00;;;;;;5013536;28;20450;-74
2023/06/15 12:55:31;;;;;;;6.47;5.97;;;27.00;1.00;;;;;;5013173;28;20416;-73